Academy, New Jersey
Current Conditions -  °F | °C
As of 6:51 PM on Monday 24 Nov 2014 (Local Time) from KEWR Reporting Station
Few Clouds Few Clouds  
Wind Chill: 19°   Ceiling: Unl
Heat Index: 19°   Visibility: 10mi
Dew Point: 12°   Wind: 20mph
Humidity: 61%   Direction: 200°SSW
Pressure: 29.67"   Gusts: 26mph
Location:  40.7334°N, 74.1735°W
Report Text: KEWR 242351Z 20017G23KT 10SM FEW032 19/12 A2967 RMK AO2 SLP047 T01940117 10233 20194 51031
Loading
Personal Weather Stations






























Interactive Weather Map New forecast layout! Learn more

10-Day Weather Forecast

Advertisements
Track Severe Weather on mobile